Time;durP1;ratioP1;P1;durP2;ratioP2;P2;SDS_P1;SDS_P2;PMS_P1;PMS_P2;Temp;Humidity;BMP_temperature;BMP_pressure;BME280_temperature;BME280_humidity;BME280_pressure;Samples;Min_cycle;Max_cycle;Signal;HPM_P1;HPM_P2
2022/09/25 00:02:30;;;;;;;8.20;6.90;;;4.30;99.90;;;;;;8378026;28;20181;-68
2022/09/25 00:06:34;;;;;;;8.07;6.87;;;4.30;99.90;;;;;;8382388;28;20182;-68
2022/09/25 00:10:49;;;;;;;8.20;6.90;;;4.20;99.90;;;;;;8379635;28;20193;-68
2022/09/25 00:14:51;;;;;;;8.70;6.30;;;4.20;99.90;;;;;;8398968;28;20339;-69
2022/09/25 00:23:12;;;;;;;7.00;5.40;;;4.00;99.90;;;;;;8384679;28;20210;-68
2022/09/25 00:27:14;;;;;;;7.70;6.00;;;4.00;99.90;;;;;;8383755;28;20194;-68
2022/09/25 00:31:23;;;;;;;9.70;7.30;;;4.00;99.90;;;;;;8383610;28;20675;-68
2022/09/25 00:35:24;;;;;;;9.70;7.17;;;4.00;99.90;;;;;;8373451;28;20260;-69
2022/09/25 00:39:25;;;;;;;8.50;7.10;;;4.00;99.90;;;;;;8384447;28;20181;-68
2022/09/25 00:43:45;;;;;;;11.40;9.60;;;4.00;99.90;;;;;;8383078;28;20220;-68
2022/09/25 00:48:04;;;;;;;7.20;5.83;;;4.00;99.90;;;;;;8381587;28;20202;-68
2022/09/25 00:52:08;;;;;;;5.93;5.00;;;4.00;99.90;;;;;;8382957;28;21053;-68
2022/09/25 00:56:10;;;;;;;7.23;5.50;;;3.90;99.90;;;;;;8375434;28;20327;-69
2022/09/25 01:00:12;;;;;;;7.53;6.23;;;3.80;99.90;;;;;;8380802;28;20273;-68
2022/09/25 01:04:16;;;;;;;5.97;5.00;;;3.80;99.90;;;;;;8380335;28;20181;-69
2022/09/25 01:08:21;;;;;;;7.77;5.87;;;3.90;99.90;;;;;;8381123;28;20189;-68
2022/09/25 01:12:22;;;;;;;7.57;6.00;;;3.80;99.90;;;;;;8378883;28;20291;-68
2022/09/25 01:16:35;;;;;;;6.47;5.70;;;3.70;99.90;;;;;;8397235;28;20221;-69
2022/09/25 01:20:55;;;;;;;9.77;7.10;;;3.60;99.90;;;;;;8382378;28;20185;-68
2022/09/25 01:25:16;;;;;;;10.67;7.20;;;3.60;99.90;;;;;;8374863;28;20248;-68
2022/09/25 01:29:18;;;;;;;8.20;6.60;;;3.50;99.90;;;;;;8376964;28;20192;-68
2022/09/25 01:33:44;;;;;;;9.97;7.37;;;3.50;99.90;;;;;;8375157;28;20193;-68
2022/09/25 01:37:56;;;;;;;13.40;9.80;;;3.60;99.90;;;;;;8374446;28;20212;-68
2022/09/25 01:42:10;;;;;;;11.47;8.20;;;3.70;99.90;;;;;;8381565;28;20185;-68
2022/09/25 01:46:17;;;;;;;9.37;7.67;;;3.70;99.90;;;;;;8384130;28;20228;-68
2022/09/25 01:50:42;;;;;;;8.53;7.53;;;3.80;99.90;;;;;;8380764;28;20184;-68
2022/09/25 01:54:49;;;;;;;9.47;7.73;;;3.90;99.90;;;;;;8377423;28;20195;-68
2022/09/25 01:58:55;;;;;;;8.83;7.37;;;4.00;99.90;;;;;;8380736;28;20197;-68
2022/09/25 02:03:06;;;;;;;10.20;7.77;;;4.10;99.90;;;;;;8380345;28;20192;-68
2022/09/25 02:07:11;;;;;;;9.83;8.00;;;4.20;99.90;;;;;;8380433;28;20213;-68
2022/09/25 02:11:13;;;;;;;8.47;6.97;;;4.20;99.90;;;;;;8385727;28;20197;-69
2022/09/25 02:15:42;;;;;;;8.67;7.00;;;4.20;99.90;;;;;;8391292;28;20208;-69
2022/09/25 02:24:32;;;;;;;9.90;8.10;;;4.30;99.90;;;;;;8384962;28;20262;-68
2022/09/25 02:28:33;;;;;;;10.90;8.13;;;4.30;99.90;;;;;;8384415;28;20270;-68
2022/09/25 02:32:34;;;;;;;10.93;8.50;;;4.40;99.90;;;;;;8386330;28;20272;-68
2022/09/25 02:36:34;;;;;;;9.07;7.53;;;4.30;99.90;;;;;;8386462;28;20203;-69
2022/09/25 02:40:57;;;;;;;9.37;7.27;;;4.30;99.90;;;;;;8387483;28;20184;-68
2022/09/25 02:45:13;;;;;;;9.63;7.13;;;4.20;99.90;;;;;;8390224;28;20185;-69
2022/09/25 02:49:39;;;;;;;8.13;6.90;;;4.10;99.90;;;;;;8384809;28;20194;-68
2022/09/25 02:53:51;;;;;;;9.77;7.00;;;4.10;99.90;;;;;;8370487;28;20198;-68
2022/09/25 02:58:03;;;;;;;9.50;6.80;;;4.00;99.90;;;;;;8383560;28;20213;-68
2022/09/25 03:02:05;;;;;;;8.30;7.17;;;3.90;99.90;;;;;;8385650;28;20178;-68
2022/09/25 03:06:07;;;;;;;10.23;7.93;;;3.90;99.90;;;;;;8386108;28;20181;-68
2022/09/25 03:10:09;;;;;;;11.27;8.20;;;3.80;99.90;;;;;;8386087;28;20194;-68
2022/09/25 03:14:10;;;;;;;9.80;7.63;;;3.80;99.90;;;;;;8387306;28;20278;-68
2022/09/25 03:18:13;;;;;;;8.27;6.27;;;3.80;99.90;;;;;;8384651;28;20228;-68
2022/09/25 03:22:13;;;;;;;10.37;7.43;;;3.80;99.90;;;;;;8384366;28;20193;-68
2022/09/25 03:26:14;;;;;;;9.87;7.70;;;3.80;99.90;;;;;;8384350;28;20262;-68
2022/09/25 03:30:15;;;;;;;9.90;7.17;;;3.70;99.90;;;;;;8384274;28;20197;-68
2022/09/25 03:34:18;;;;;;;10.00;6.70;;;3.70;99.90;;;;;;8384988;28;20286;-68
2022/09/25 03:38:18;;;;;;;8.53;6.80;;;3.70;99.90;;;;;;8384232;28;20641;-68
2022/09/25 03:42:19;;;;;;;9.10;7.40;;;3.70;99.90;;;;;;8383603;28;20272;-68
2022/09/25 03:46:22;;;;;;;9.80;7.33;;;3.80;99.90;;;;;;8383083;28;20292;-68
2022/09/25 03:50:23;;;;;;;9.57;7.00;;;3.80;99.90;;;;;;8400961;28;20190;-68
2022/09/25 03:54:24;;;;;;;10.57;7.90;;;3.80;99.90;;;;;;8400879;28;20195;-68
2022/09/25 03:58:25;;;;;;;9.80;7.83;;;3.80;99.90;;;;;;8385008;28;20220;-68
2022/09/25 04:02:27;;;;;;;11.43;7.60;;;3.90;99.90;;;;;;8381455;28;20185;-68
2022/09/25 04:06:28;;;;;;;11.83;9.53;;;3.90;99.90;;;;;;8381726;28;20317;-68
2022/09/25 04:10:30;;;;;;;10.60;7.97;;;3.80;99.90;;;;;;8382202;28;20184;-68
2022/09/25 04:14:31;;;;;;;10.40;8.60;;;3.80;99.90;;;;;;8379317;28;20223;-68
2022/09/25 04:18:32;;;;;;;12.70;7.57;;;3.80;99.90;;;;;;8379104;28;20220;-69
2022/09/25 04:22:32;;;;;;;13.60;8.73;;;3.80;99.90;;;;;;8381945;28;20189;-69
2022/09/25 04:26:34;;;;;;;11.43;8.00;;;3.70;99.90;;;;;;8379323;28;20284;-68
2022/09/25 04:30:35;;;;;;;11.83;8.17;;;3.70;99.90;;;;;;8382171;28;20182;-69
2022/09/25 04:34:36;;;;;;;15.67;11.13;;;3.70;99.90;;;;;;8377341;28;20182;-68
2022/09/25 04:38:37;;;;;;;16.93;12.03;;;3.70;99.90;;;;;;8382969;28;20256;-68
2022/09/25 04:42:38;;;;;;;14.70;11.13;;;3.70;99.90;;;;;;8384078;28;20635;-68
2022/09/25 04:46:39;;;;;;;14.67;10.10;;;3.80;99.90;;;;;;8396806;28;20277;-68
2022/09/25 04:50:47;;;;;;;12.50;9.70;;;3.80;99.90;;;;;;8379547;28;20186;-68
2022/09/25 04:54:48;;;;;;;12.57;8.43;;;3.90;99.90;;;;;;8373366;28;20213;-69
2022/09/25 04:58:49;;;;;;;9.40;7.70;;;3.90;99.90;;;;;;8378199;28;20214;-68
2022/09/25 05:02:50;;;;;;;9.17;8.27;;;4.00;99.90;;;;;;8382521;28;20185;-69
2022/09/25 05:06:50;;;;;;;12.00;9.57;;;4.10;99.90;;;;;;8383065;28;20196;-68
2022/09/25 05:10:51;;;;;;;19.93;13.07;;;4.20;99.90;;;;;;8380392;28;20234;-69
2022/09/25 05:14:52;;;;;;;19.70;13.77;;;4.40;99.90;;;;;;8384404;28;20284;-69
2022/09/25 05:18:53;;;;;;;25.37;17.43;;;4.50;99.90;;;;;;8381726;28;20236;-68
2022/09/25 05:23:03;;;;;;;26.67;18.10;;;4.70;99.90;;;;;;8396163;28;20185;-69
2022/09/25 05:27:03;;;;;;;20.67;15.17;;;4.90;99.90;;;;;;8399043;28;20189;-68
2022/09/25 05:31:05;;;;;;;23.13;16.10;;;5.00;99.90;;;;;;8381826;28;20204;-68
2022/09/25 05:35:06;;;;;;;20.07;14.47;;;5.10;99.90;;;;;;8378091;28;20213;-67
2022/09/25 05:39:10;;;;;;;19.10;13.13;;;5.20;99.90;;;;;;8395425;28;20216;-68
2022/09/25 05:43:11;;;;;;;18.93;13.47;;;5.40;99.90;;;;;;8382425;28;20596;-69
2022/09/25 05:47:12;;;;;;;17.67;12.87;;;5.50;99.90;;;;;;8386685;28;20184;-68
2022/09/25 05:51:14;;;;;;;16.47;13.20;;;5.60;99.90;;;;;;8387706;28;20219;-68
2022/09/25 05:55:17;;;;;;;18.03;12.33;;;5.70;99.90;;;;;;8384573;28;20216;-68
2022/09/25 05:59:21;;;;;;;15.43;11.20;;;5.70;99.90;;;;;;8387983;28;20268;-68
2022/09/25 06:03:22;;;;;;;15.97;11.57;;;5.80;99.90;;;;;;8383573;28;20189;-69
2022/09/25 06:07:23;;;;;;;16.70;12.23;;;5.90;99.90;;;;;;8386530;28;20202;-70
2022/09/25 06:11:23;;;;;;;16.10;11.13;;;6.10;99.90;;;;;;8385652;28;20189;-69
2022/09/25 06:15:42;;;;;;;16.17;11.60;;;6.20;99.90;;;;;;8380781;28;20197;-70
2022/09/25 06:19:43;;;;;;;17.20;12.90;;;6.30;99.90;;;;;;8385651;28;20185;-69
2022/09/25 06:23:45;;;;;;;15.40;11.70;;;6.40;99.90;;;;;;8387524;28;20185;-70
2022/09/25 06:27:46;;;;;;;21.07;16.30;;;6.60;99.90;;;;;;8400778;28;20184;-69
2022/09/25 06:31:47;;;;;;;28.27;21.83;;;6.80;99.90;;;;;;8388584;28;20173;-70
2022/09/25 06:35:49;;;;;;;23.90;17.57;;;7.00;99.90;;;;;;8384805;28;20246;-70
2022/09/25 06:39:49;;;;;;;29.07;20.60;;;7.20;99.90;;;;;;8390085;28;20188;-69
2022/09/25 06:43:51;;;;;;;35.27;25.07;;;7.50;99.90;;;;;;8385610;28;20181;-69
2022/09/25 06:48:15;;;;;;;47.20;31.10;;;7.80;99.90;;;;;;8385275;28;20179;-69
2022/09/25 06:52:17;;;;;;;49.73;33.70;;;7.90;99.90;;;;;;8378611;28;20197;-69
2022/09/25 06:56:18;;;;;;;43.07;30.90;;;8.40;99.90;;;;;;8383452;28;20223;-69
2022/09/25 07:00:22;;;;;;;41.80;28.63;;;8.90;99.90;;;;;;8386030;28;20181;-69
2022/09/25 07:04:24;;;;;;;42.00;28.70;;;9.30;99.90;;;;;;8377235;28;20514;-69
2022/09/25 07:08:26;;;;;;;25.50;19.47;;;9.70;99.90;;;;;;8383853;28;20192;-70
2022/09/25 07:12:27;;;;;;;16.60;13.17;;;10.10;99.90;;;;;;8398917;28;20205;-69
2022/09/25 07:16:29;;;;;;;12.50;9.60;;;10.60;99.90;;;;;;8383320;28;20298;-69
2022/09/25 07:20:31;;;;;;;9.83;7.73;;;11.10;99.90;;;;;;8384513;28;20191;-69
2022/09/25 07:24:32;;;;;;;9.57;7.83;;;11.60;99.90;;;;;;8371324;28;20188;-69
2022/09/25 07:28:33;;;;;;;10.20;8.30;;;12.10;99.90;;;;;;8386592;28;20189;-69
2022/09/25 07:32:34;;;;;;;10.13;6.93;;;12.50;99.90;;;;;;8383099;28;20339;-70
2022/09/25 07:36:37;;;;;;;7.07;5.00;;;12.80;99.90;;;;;;8382559;28;20278;-68
2022/09/25 07:40:41;;;;;;;18.13;14.23;;;13.20;99.90;;;;;;8399043;28;20200;-68
2022/09/25 07:44:43;;;;;;;8.33;6.90;;;13.20;1.00;;;;;;8382444;28;20185;-69
2022/09/25 07:48:48;;;;;;;8.57;6.30;;;13.30;61.60;;;;;;8381443;28;20264;-69
2022/09/25 07:52:48;;;;;;;7.93;6.43;;;13.50;1.00;;;;;;8382984;28;20235;-69
2022/09/25 07:56:49;;;;;;;17.83;14.47;;;13.80;1.00;;;;;;8383327;28;20277;-69
2022/09/25 08:00:50;;;;;;;20.40;16.20;;;14.10;1.00;;;;;;8379950;28;20204;-69
2022/09/25 08:04:53;;;;;;;25.63;19.53;;;14.30;1.00;;;;;;8381492;28;20229;-68
2022/09/25 08:09:00;;;;;;;26.17;18.13;;;14.50;99.90;;;;;;8385264;28;20188;-69
2022/09/25 08:13:01;;;;;;;18.17;13.97;;;14.20;1.00;;;;;;8378771;28;20205;-68
2022/09/25 08:17:02;;;;;;;18.60;15.03;;;14.40;1.00;;;;;;8380325;28;20243;-69
2022/09/25 08:21:04;;;;;;;18.23;14.53;;;14.50;1.00;;;;;;8380232;28;20188;-69
2022/09/25 08:25:05;;;;;;;12.80;10.67;;;14.50;1.00;;;;;;8381814;28;20220;-70
2022/09/25 08:29:09;;;;;;;14.00;11.63;;;14.50;1.00;;;;;;8383701;28;20211;-69
2022/09/25 08:33:14;;;;;;;20.77;15.80;;;14.70;1.00;;;;;;8380919;28;20205;-69
2022/09/25 08:37:16;;;;;;;11.97;8.67;;;14.80;1.00;;;;;;8381231;28;20291;-70
2022/09/25 08:41:30;;;;;;;6.73;4.57;;;15.30;99.90;;;;;;8379485;28;20193;-69
2022/09/25 08:50:18;;;;;;;6.33;4.97;;;16.00;99.90;;;;;;8379600;28;20397;-69
2022/09/25 08:54:25;;;;;;;6.83;4.10;;;16.20;99.90;;;;;;8377160;28;20185;-70
2022/09/25 08:58:30;;;;;;;6.07;4.57;;;16.40;99.90;;;;;;8397552;28;20220;-70
2022/09/25 09:02:41;;;;;;;5.73;3.83;;;16.70;99.90;;;;;;8382364;28;20173;-69
2022/09/25 09:06:42;;;;;;;7.57;4.93;;;17.00;99.90;;;;;;8382560;28;20209;-70
2022/09/25 09:11:21;;;;;;;5.53;4.33;;;17.50;99.90;;;;;;8377905;28;20185;-70
2022/09/25 09:15:48;;;;;;;4.80;3.93;;;18.00;99.90;;;;;;8370557;28;20316;-68
2022/09/25 09:19:58;;;;;;;4.10;3.23;;;18.30;99.90;;;;;;8382281;28;20177;-69
2022/09/25 09:24:07;;;;;;;4.03;3.07;;;18.50;99.90;;;;;;8372615;28;20196;-69
2022/09/25 09:28:41;;;;;;;3.97;3.10;;;18.80;95.80;;;;;;8382849;28;20181;-69
2022/09/25 09:33:26;;;;;;;4.40;3.10;;;18.80;46.20;;;;;;8380800;28;20220;-70
2022/09/25 09:37:41;;;;;;;6.13;4.47;;;19.40;5.10;;;;;;8399892;28;20208;-70
2022/09/25 09:41:57;;;;;;;5.50;3.27;;;20.00;1.00;;;;;;8376679;28;20177;-70
2022/09/25 09:46:15;;;;;;;6.27;3.97;;;20.30;1.00;;;;;;8383011;28;20185;-70
2022/09/25 09:50:25;;;;;;;5.03;2.50;;;20.30;1.00;;;;;;8373472;28;20177;-69
2022/09/25 09:54:26;;;;;;;2.93;2.30;;;20.10;1.00;;;;;;8379325;28;20182;-68
2022/09/25 09:58:39;;;;;;;3.30;2.70;;;19.90;1.00;;;;;;8378639;28;20207;-68
2022/09/25 10:02:44;;;;;;;5.30;2.40;;;20.00;1.00;;;;;;8378711;28;20244;-69
2022/09/25 10:07:02;;;;;;;6.60;2.33;;;20.10;1.00;;;;;;8376803;28;20189;-68
2022/09/25 10:11:10;;;;;;;3.60;2.80;;;20.20;1.00;;;;;;8375920;28;20188;-67
2022/09/25 10:15:27;;;;;;;3.53;2.40;;;20.20;1.00;;;;;;8380297;28;20201;-68
2022/09/25 10:19:45;;;;;;;2.60;2.17;;;20.10;1.00;;;;;;8378011;28;20533;-68
2022/09/25 10:23:51;;;;;;;2.63;2.10;;;20.10;1.00;;;;;;8378894;28;20173;-68
2022/09/25 10:27:52;;;;;;;2.47;2.27;;;20.10;1.00;;;;;;8396819;28;20181;-67
2022/09/25 10:31:58;;;;;;;3.50;2.30;;;19.80;1.00;;;;;;8383871;28;20282;-68
2022/09/25 10:35:59;;;;;;;3.47;2.20;;;19.70;1.00;;;;;;8381348;28;20322;-67
2022/09/25 10:40:25;;;;;;;3.20;2.70;;;19.80;1.00;;;;;;8377930;28;20182;-67
2022/09/25 10:44:35;;;;;;;3.07;2.43;;;19.90;1.00;;;;;;8398465;28;20211;-68
2022/09/25 10:53:02;;;;;;;3.03;2.47;;;20.00;1.00;;;;;;8385356;28;20192;-68
2022/09/25 10:57:36;;;;;;;4.20;3.30;;;20.30;1.00;;;;;;8384106;28;20292;-70
2022/09/25 11:01:40;;;;;;;5.63;3.70;;;21.00;1.00;;;;;;8368525;28;20193;-70
2022/09/25 11:05:52;;;;;;;7.70;6.20;;;21.10;1.00;;;;;;8375536;28;20188;-68
2022/09/25 11:09:54;;;;;;;6.20;4.67;;;20.70;1.00;;;;;;8377943;28;20243;-69
2022/09/25 11:13:58;;;;;;;4.50;3.33;;;20.60;1.00;;;;;;8385534;28;20307;-69
2022/09/25 11:17:59;;;;;;;6.10;4.47;;;20.60;1.00;;;;;;8398359;28;20311;-69
2022/09/25 11:22:12;;;;;;;5.53;4.23;;;20.60;1.00;;;;;;8399783;28;20268;-69
2022/09/25 11:26:21;;;;;;;5.57;3.83;;;20.00;9.00;;;;;;8382895;28;20185;-69
2022/09/25 11:30:23;;;;;;;4.33;3.10;;;19.90;1.00;;;;;;8383314;28;20185;-69
2022/09/25 11:35:06;;;;;;;5.43;4.23;;;19.90;1.00;;;;;;8382977;28;20188;-69
2022/09/25 11:44:14;;;;;;;6.63;4.50;;;20.60;1.00;;;;;;8383038;28;20196;-69
2022/09/25 11:48:34;;;;;;;6.23;3.70;;;20.30;1.00;;;;;;8376432;28;20192;-68
2022/09/25 11:53:04;;;;;;;4.07;3.67;;;19.50;1.00;;;;;;8385550;28;20200;-71
2022/09/25 11:57:20;;;;;;;6.70;4.57;;;19.50;2.90;;;;;;8385135;28;20201;-69
2022/09/25 12:01:49;;;;;;;7.33;3.20;;;19.40;11.50;;;;;;8399716;28;20188;-69
2022/09/25 12:05:55;;;;;;;5.20;3.50;;;19.60;1.00;;;;;;8382181;28;20571;-68
2022/09/25 12:10:06;;;;;;;5.37;4.00;;;20.20;1.00;;;;;;8384673;28;20234;-68
2022/09/25 12:14:27;;;;;;;4.57;3.63;;;20.70;1.00;;;;;;8383293;28;20224;-69
2022/09/25 12:18:37;;;;;;;4.77;3.33;;;20.90;1.00;;;;;;8398436;28;20350;-69
2022/09/25 12:22:44;;;;;;;3.40;2.90;;;20.90;1.00;;;;;;8379812;28;20178;-69
2022/09/25 12:26:55;;;;;;;3.87;3.17;;;21.10;1.00;;;;;;8380799;28;20177;-69
2022/09/25 12:31:02;;;;;;;4.87;4.00;;;21.10;1.00;;;;;;8377042;28;20181;-69
2022/09/25 12:35:15;;;;;;;6.40;4.10;;;21.10;1.00;;;;;;8381363;28;20386;-68
2022/09/25 12:39:28;;;;;;;4.07;3.40;;;20.90;1.00;;;;;;8382655;28;20204;-69
2022/09/25 12:43:51;;;;;;;3.40;2.97;;;20.80;1.00;;;;;;8394758;28;20280;-68
2022/09/25 12:48:28;;;;;;;3.73;3.27;;;20.80;1.00;;;;;;8378901;28;20184;-68
2022/09/25 12:52:40;;;;;;;3.87;2.77;;;20.80;1.00;;;;;;8380022;28;20185;-69
2022/09/25 12:56:57;;;;;;;3.70;3.03;;;20.80;1.00;;;;;;8381232;28;20225;-68
2022/09/25 13:01:10;;;;;;;4.60;3.87;;;20.90;1.00;;;;;;8381742;28;20264;-68
2022/09/25 13:05:43;;;;;;;5.90;3.50;;;20.80;1.00;;;;;;8394904;28;20197;-69
2022/09/25 13:09:45;;;;;;;4.93;3.10;;;20.60;1.00;;;;;;8381475;28;20231;-68
2022/09/25 13:13:52;;;;;;;6.70;5.60;;;20.50;1.00;;;;;;8381920;28;20303;-68
2022/09/25 13:17:54;;;;;;;6.03;3.60;;;20.30;1.00;;;;;;8382532;28;20268;-68
2022/09/25 13:22:34;;;;;;;3.27;2.87;;;20.10;1.00;;;;;;8380591;28;20178;-67
2022/09/25 13:26:52;;;;;;;6.50;5.33;;;20.20;1.00;;;;;;8370808;28;20200;-68
2022/09/25 13:30:58;;;;;;;5.53;3.57;;;20.20;1.00;;;;;;8379320;28;20216;-68
2022/09/25 13:35:05;;;;;;;2.73;2.50;;;20.10;1.00;;;;;;8382841;28;20512;-68
2022/09/25 13:44:30;;;;;;;4.43;3.80;;;20.10;1.00;;;;;;8378156;28;20196;-68
2022/09/25 13:48:34;;;;;;;4.47;3.50;;;20.20;1.00;;;;;;8383676;28;20192;-68
2022/09/25 13:52:38;;;;;;;5.57;3.67;;;20.10;1.00;;;;;;8383388;28;20188;-67
2022/09/25 13:56:42;;;;;;;4.23;3.17;;;19.90;1.00;;;;;;8374429;28;20212;-68
2022/09/25 14:00:45;;;;;;;5.60;2.90;;;19.90;2.40;;;;;;8375286;28;20177;-68
2022/09/25 14:04:47;;;;;;;4.03;2.87;;;19.80;28.00;;;;;;8384841;28;20193;-68
2022/09/25 14:08:49;;;;;;;3.33;2.63;;;19.70;43.10;;;;;;8384912;28;20220;-68
2022/09/25 14:12:52;;;;;;;3.67;2.67;;;19.60;51.70;;;;;;8384094;28;20442;-68
2022/09/25 14:16:57;;;;;;;6.53;3.90;;;19.50;55.00;;;;;;8402800;28;20224;-68
2022/09/25 14:20:59;;;;;;;4.20;3.53;;;19.20;80.70;;;;;;8384294;28;20213;-68
2022/09/25 14:25:00;;;;;;;5.27;3.77;;;19.10;42.60;;;;;;8383296;28;20185;-67
2022/09/25 14:29:04;;;;;;;3.70;3.30;;;19.00;93.90;;;;;;8383035;28;20260;-67
2022/09/25 14:33:27;;;;;;;5.00;3.10;;;18.80;99.90;;;;;;8382747;28;20559;-68
2022/09/25 14:37:41;;;;;;;3.60;3.00;;;18.60;99.90;;;;;;8399618;28;20196;-67
2022/09/25 14:41:53;;;;;;;4.30;3.40;;;18.40;99.90;;;;;;8382852;28;20490;-67
2022/09/25 14:45:59;;;;;;;5.47;3.37;;;18.30;99.90;;;;;;8385488;28;20193;-68
2022/09/25 14:50:01;;;;;;;4.57;3.30;;;18.30;99.90;;;;;;8377444;28;20192;-68
2022/09/25 14:54:06;;;;;;;3.63;3.17;;;18.30;99.90;;;;;;8385368;28;20209;-68
2022/09/25 14:58:11;;;;;;;4.63;3.57;;;18.30;99.90;;;;;;8388434;28;20205;-67
2022/09/25 15:02:36;;;;;;;3.70;3.40;;;18.30;99.90;;;;;;8386026;28;20188;-67
2022/09/25 15:06:39;;;;;;;3.87;3.33;;;18.30;99.90;;;;;;8378155;28;20262;-67
2022/09/25 15:10:40;;;;;;;3.67;3.33;;;18.30;99.90;;;;;;8383207;28;20285;-68
2022/09/25 15:14:59;;;;;;;4.53;3.40;;;18.40;99.90;;;;;;8373842;28;20225;-70
2022/09/25 15:19:07;;;;;;;5.60;4.20;;;18.60;99.90;;;;;;8382971;28;20209;-68
2022/09/25 15:23:15;;;;;;;5.23;3.90;;;18.70;99.90;;;;;;8383625;28;20219;-68
2022/09/25 15:27:17;;;;;;;4.13;3.40;;;18.60;99.90;;;;;;8383706;28;20270;-68
2022/09/25 15:31:20;;;;;;;4.00;3.47;;;18.60;99.90;;;;;;8382885;28;20272;-67
2022/09/25 15:35:24;;;;;;;5.13;3.60;;;18.40;99.90;;;;;;8381270;28;20738;-69
2022/09/25 15:39:28;;;;;;;5.40;3.23;;;18.10;99.90;;;;;;8384928;28;20271;-67
2022/09/25 15:43:32;;;;;;;3.77;3.33;;;17.90;99.90;;;;;;8382135;28;20177;-66
2022/09/25 15:47:33;;;;;;;3.73;3.30;;;17.60;99.90;;;;;;8380261;28;20211;-67
2022/09/25 15:51:35;;;;;;;4.03;3.10;;;17.40;99.90;;;;;;8383503;28;20334;-67
2022/09/25 15:55:39;;;;;;;4.30;3.33;;;17.20;99.90;;;;;;8387791;28;20271;-67
2022/09/25 16:08:35;;;;;;;3.37;3.07;;;16.50;99.90;;;;;;8384744;28;20235;-68
2022/09/25 16:12:44;;;;;;;3.13;2.83;;;16.30;1.00;;;;;;8401500;28;20201;-68
2022/09/25 16:16:49;;;;;;;3.37;3.00;;;16.10;1.00;;;;;;8384643;28;20220;-67
2022/09/25 16:21:07;;;;;;;3.30;3.00;;;15.80;8.50;;;;;;8375613;28;20276;-68
2022/09/25 16:25:20;;;;;;;3.67;3.30;;;15.60;99.90;;;;;;8381980;28;20201;-68
2022/09/25 16:29:33;;;;;;;4.43;3.33;;;15.30;99.90;;;;;;8379187;28;20346;-68
2022/09/25 16:33:37;;;;;;;4.00;3.60;;;15.00;1.00;;;;;;8385342;28;20189;-68
2022/09/25 16:37:38;;;;;;;3.50;3.20;;;14.70;98.10;;;;;;8385274;28;20237;-67
2022/09/25 16:41:51;;;;;;;4.47;3.33;;;14.50;99.90;;;;;;8384363;28;20187;-68
2022/09/25 16:46:00;;;;;;;3.60;3.30;;;14.30;99.90;;;;;;8384262;28;20263;-67
2022/09/25 16:50:01;;;;;;;3.30;3.00;;;14.10;1.00;;;;;;8377659;28;20188;-68
2022/09/25 16:54:03;;;;;;;4.40;3.40;;;13.90;99.90;;;;;;8382217;28;20180;-67
2022/09/25 16:58:09;;;;;;;9.10;4.67;;;13.80;99.90;;;;;;8382606;28;20205;-68
2022/09/25 17:02:19;;;;;;;6.13;5.23;;;13.70;11.60;;;;;;8376675;28;20185;-67
2022/09/25 17:06:22;;;;;;;8.30;5.80;;;13.60;1.00;;;;;;8378397;28;20339;-66
2022/09/25 17:10:28;;;;;;;7.00;5.20;;;13.60;84.20;;;;;;8379396;28;20272;-67
2022/09/25 17:14:28;;;;;;;5.03;4.53;;;13.60;99.90;;;;;;8382586;28;20228;-67
2022/09/25 17:18:29;;;;;;;5.43;4.40;;;13.60;1.00;;;;;;8378307;28;20213;-67
2022/09/25 17:22:30;;;;;;;7.77;4.50;;;13.60;1.00;;;;;;8378704;28;20193;-66
2022/09/25 17:26:31;;;;;;;6.83;4.80;;;13.50;4.20;;;;;;8380714;28;20185;-67
2022/09/25 17:30:32;;;;;;;5.27;4.53;;;13.40;99.90;;;;;;8381136;28;20242;-67
2022/09/25 17:34:33;;;;;;;5.73;4.87;;;13.40;99.90;;;;;;8379520;28;20267;-67
2022/09/25 17:38:35;;;;;;;4.77;4.30;;;13.40;14.60;;;;;;8383513;28;20315;-67
2022/09/25 17:42:39;;;;;;;4.93;4.40;;;13.30;1.00;;;;;;8388099;28;20287;-67
2022/09/25 17:46:40;;;;;;;4.97;4.47;;;13.20;1.00;;;;;;8390604;28;20201;-67
2022/09/25 17:50:43;;;;;;;4.70;4.17;;;13.10;99.90;;;;;;8391514;28;20246;-68
2022/09/25 17:54:44;;;;;;;6.20;5.17;;;13.00;99.90;;;;;;8393919;28;20189;-67
2022/09/25 17:58:45;;;;;;;9.77;6.43;;;12.90;99.90;;;;;;8389528;28;20208;-68
2022/09/25 18:02:46;;;;;;;62.60;28.90;;;12.90;1.00;;;;;;8391722;28;20335;-66
2022/09/25 18:06:47;;;;;;;46.33;23.80;;;12.90;1.00;;;;;;8385868;28;20193;-67
2022/09/25 18:10:57;;;;;;;32.17;17.83;;;12.80;87.50;;;;;;8390938;28;20268;-67
2022/09/25 18:14:58;;;;;;;27.53;17.10;;;12.80;99.90;;;;;;8390888;28;20307;-66
2022/09/25 18:23:18;;;;;;;24.93;15.30;;;12.60;99.90;;;;;;8390579;28;20266;-65
2022/09/25 18:27:19;;;;;;;17.40;11.30;;;12.50;99.90;;;;;;8388651;28;20188;-66
2022/09/25 18:31:20;;;;;;;12.07;9.00;;;12.40;1.00;;;;;;8390249;28;20181;-67
2022/09/25 18:35:24;;;;;;;9.20;7.03;;;12.30;1.00;;;;;;8389284;28;20199;-67
2022/09/25 18:39:25;;;;;;;7.03;6.00;;;12.10;99.90;;;;;;8390992;28;20220;-66
2022/09/25 18:43:26;;;;;;;6.37;5.77;;;11.80;1.00;;;;;;8381964;28;20196;-66
2022/09/25 18:47:27;;;;;;;7.83;6.80;;;11.70;99.90;;;;;;8391974;28;20192;-66
2022/09/25 18:51:28;;;;;;;12.27;9.60;;;11.50;1.00;;;;;;8389495;28;20577;-67
2022/09/25 18:55:29;;;;;;;15.77;12.20;;;11.40;99.90;;;;;;8384013;28;20184;-66
2022/09/25 18:59:30;;;;;;;13.63;10.50;;;11.30;50.90;;;;;;8400731;28;20240;-66
2022/09/25 19:03:31;;;;;;;12.57;8.87;;;11.20;96.50;;;;;;8383356;28;20177;-66
2022/09/25 19:07:31;;;;;;;10.57;8.73;;;11.10;99.90;;;;;;8386020;28;20242;-66
2022/09/25 19:11:32;;;;;;;10.87;8.13;;;11.00;1.00;;;;;;8382401;28;20209;-66
2022/09/25 19:15:33;;;;;;;10.47;7.90;;;10.90;99.90;;;;;;8387504;28;20500;-66
2022/09/25 19:19:35;;;;;;;11.23;8.80;;;10.80;99.90;;;;;;8382641;28;20309;-66
2022/09/25 19:23:36;;;;;;;9.87;7.97;;;10.70;1.00;;;;;;8383035;28;20273;-66
2022/09/25 19:27:37;;;;;;;9.00;6.90;;;10.60;74.20;;;;;;8384753;28;20239;-66
2022/09/25 19:31:38;;;;;;;5.77;5.03;;;10.50;99.90;;;;;;8384296;28;20186;-66
2022/09/25 19:35:39;;;;;;;5.30;4.80;;;10.40;99.90;;;;;;8383590;28;20304;-66
2022/09/25 19:44:09;;;;;;;6.37;5.33;;;10.40;99.90;;;;;;8384273;28;20304;-68
2022/09/25 19:48:10;;;;;;;9.00;7.60;;;10.30;99.90;;;;;;8382938;28;20185;-66
2022/09/25 19:52:11;;;;;;;11.73;9.63;;;10.20;99.90;;;;;;8400507;28;20185;-67
2022/09/25 19:56:13;;;;;;;13.13;9.70;;;10.20;99.90;;;;;;8389422;28;20217;-66
2022/09/25 20:00:17;;;;;;;10.83;8.63;;;10.10;99.90;;;;;;8382291;28;20312;-66
2022/09/25 20:04:18;;;;;;;11.80;9.23;;;10.10;99.90;;;;;;8377038;28;20272;-67
2022/09/25 20:08:19;;;;;;;13.80;9.90;;;10.00;99.90;;;;;;8385510;28;20288;-66
2022/09/25 20:12:20;;;;;;;11.93;9.30;;;9.90;99.90;;;;;;8384657;28;20209;-66
2022/09/25 20:16:23;;;;;;;10.83;7.90;;;9.80;99.90;;;;;;8383633;28;20418;-67
2022/09/25 20:20:28;;;;;;;8.43;6.93;;;9.70;99.90;;;;;;8380262;28;20186;-67
2022/09/25 20:24:29;;;;;;;8.47;6.10;;;9.60;99.90;;;;;;8381757;28;20271;-66
2022/09/25 20:28:29;;;;;;;8.03;5.37;;;9.60;99.90;;;;;;8384212;28;20259;-67
2022/09/25 20:32:31;;;;;;;7.27;5.93;;;9.50;99.90;;;;;;8385366;28;20231;-67
2022/09/25 20:36:35;;;;;;;6.83;6.00;;;9.40;99.90;;;;;;8384088;28;20537;-67
2022/09/25 20:40:39;;;;;;;11.73;8.17;;;9.40;99.90;;;;;;8385128;28;20226;-67
2022/09/25 20:44:39;;;;;;;9.07;7.37;;;9.30;99.90;;;;;;8383547;28;20213;-67
2022/09/25 20:48:45;;;;;;;9.00;6.30;;;9.30;99.90;;;;;;8383005;28;20185;-67
2022/09/25 20:52:46;;;;;;;7.17;5.77;;;9.20;99.90;;;;;;8380603;28;20248;-67
2022/09/25 20:56:47;;;;;;;6.87;5.10;;;9.00;99.90;;;;;;8385212;28;20606;-67
2022/09/25 21:00:49;;;;;;;9.43;7.33;;;8.90;99.90;;;;;;8381453;28;20181;-67
2022/09/25 21:04:52;;;;;;;8.67;7.53;;;8.80;99.90;;;;;;8383824;28;20375;-66
2022/09/25 21:08:56;;;;;;;10.37;7.70;;;8.80;99.90;;;;;;8398666;28;20186;-67
2022/09/25 21:12:57;;;;;;;28.53;21.07;;;8.80;99.90;;;;;;8399784;28;20346;-67
2022/09/25 21:16:58;;;;;;;24.40;18.40;;;8.70;99.90;;;;;;8381138;28;20320;-67
2022/09/25 21:21:00;;;;;;;20.63;13.30;;;8.60;99.90;;;;;;8381385;28;20212;-67
2022/09/25 21:25:01;;;;;;;13.57;10.13;;;8.50;99.90;;;;;;8380173;28;20177;-67
2022/09/25 21:29:03;;;;;;;9.77;7.57;;;8.30;99.90;;;;;;8381818;28;20279;-67
2022/09/25 21:33:04;;;;;;;7.40;6.67;;;8.10;99.90;;;;;;8378619;28;20192;-67
2022/09/25 21:37:05;;;;;;;12.33;8.70;;;8.00;99.90;;;;;;8382045;28;20205;-68
2022/09/25 21:41:10;;;;;;;15.63;11.00;;;7.90;99.90;;;;;;8379053;28;20185;-67
2022/09/25 21:45:11;;;;;;;17.73;11.00;;;7.80;99.90;;;;;;8381605;28;20264;-67
2022/09/25 21:49:20;;;;;;;12.50;8.50;;;7.80;99.90;;;;;;8383123;28;20192;-67
2022/09/25 21:53:21;;;;;;;9.67;6.80;;;7.70;99.90;;;;;;8381567;28;20565;-67
2022/09/25 21:57:22;;;;;;;7.23;4.97;;;7.60;99.90;;;;;;8381481;28;20228;-67
2022/09/25 22:01:28;;;;;;;6.40;4.83;;;7.40;99.90;;;;;;8383070;28;20327;-67
2022/09/25 22:05:29;;;;;;;5.70;5.10;;;7.40;99.90;;;;;;8385784;28;20266;-67
2022/09/25 22:09:30;;;;;;;11.30;7.13;;;7.40;99.90;;;;;;8380564;28;20189;-67